createdAt,value
2018-11-28T00:00:50.367Z,6.20
2018-11-28T00:03:20.330Z,5.87
2018-11-28T00:05:50.254Z,8.83
2018-11-28T00:08:20.383Z,6.43
2018-11-28T00:10:50.156Z,6.33
2018-11-28T00:13:19.903Z,5.80
2018-11-28T00:15:49.913Z,6.00
2018-11-28T00:18:19.809Z,5.70
2018-11-28T00:20:49.664Z,7.23
2018-11-28T00:23:19.568Z,6.60
2018-11-28T00:25:49.448Z,5.77
2018-11-28T00:28:19.382Z,5.03
2018-11-28T00:30:49.162Z,4.50
2018-11-28T00:33:18.952Z,4.83
2018-11-28T00:35:48.842Z,4.53
2018-11-28T00:38:18.871Z,4.30
2018-11-28T00:40:48.751Z,3.37
2018-11-28T00:43:18.695Z,3.57
2018-11-28T00:45:48.619Z,4.27
2018-11-28T00:48:18.555Z,2.90
2018-11-28T00:50:48.270Z,2.70
2018-11-28T00:53:18.027Z,2.90
2018-11-28T00:55:48.564Z,2.67
2018-11-28T00:58:18.009Z,2.60
2018-11-28T01:00:47.871Z,2.93
2018-11-28T01:03:17.838Z,2.43
2018-11-28T01:05:48.720Z,3.03
2018-11-28T01:08:18.642Z,3.37
2018-11-28T01:10:48.437Z,3.10
2018-11-28T01:13:18.215Z,2.73
2018-11-28T01:15:48.191Z,3.37
2018-11-28T01:18:18.035Z,2.50
2018-11-28T01:20:47.896Z,2.73
2018-11-28T01:23:17.782Z,2.70
2018-11-28T01:25:47.703Z,2.77
2018-11-28T01:28:17.639Z,2.20
2018-11-28T01:30:47.396Z,2.27
2018-11-28T01:33:17.160Z,2.10
2018-11-28T01:35:47.034Z,2.80
2018-11-28T01:38:16.935Z,2.20
2018-11-28T01:40:46.829Z,2.60
2018-11-28T01:43:16.733Z,2.70
2018-11-28T01:45:46.753Z,2.53
2018-11-28T01:48:16.748Z,2.43
2018-11-28T01:50:46.503Z,2.07
2018-11-28T01:53:16.291Z,3.00
2018-11-28T01:55:46.320Z,2.50
2018-11-28T01:58:16.307Z,3.37
2018-11-28T02:00:46.247Z,2.27
2018-11-28T02:03:16.313Z,2.30
2018-11-28T02:05:46.291Z,2.43
2018-11-28T02:08:16.205Z,2.90
2018-11-28T02:10:45.955Z,2.60
2018-11-28T02:13:15.765Z,2.40
2018-11-28T02:15:45.749Z,3.43
2018-11-28T02:18:15.808Z,2.20
2018-11-28T02:20:45.715Z,2.10
2018-11-28T02:23:15.702Z,2.43
2018-11-28T02:25:45.572Z,2.23
2018-11-28T02:28:15.571Z,2.40
2018-11-28T02:30:45.351Z,1.97
2018-11-28T02:33:15.187Z,2.83
2018-11-28T02:35:45.178Z,2.77
2018-11-28T02:38:15.108Z,2.47
2018-11-28T02:40:45.071Z,2.37
2018-11-28T02:43:14.954Z,2.50
2018-11-28T02:45:49.130Z,2.53
2018-11-28T02:48:18.967Z,2.60
2018-11-28T02:50:48.719Z,3.30
2018-11-28T02:53:18.557Z,2.43
2018-11-28T02:55:48.479Z,2.40
2018-11-28T02:58:18.662Z,2.20
2018-11-28T03:00:48.673Z,2.10
2018-11-28T03:03:18.605Z,2.30
2018-11-28T03:05:48.526Z,2.47
2018-11-28T03:08:18.502Z,2.73
2018-11-28T03:10:48.249Z,2.90
2018-11-28T03:13:18.068Z,2.67
2018-11-28T03:15:49.802Z,2.57
2018-11-28T03:18:19.787Z,5.17
2018-11-28T03:20:49.651Z,4.37
2018-11-28T03:23:19.763Z,3.27
2018-11-28T03:25:49.710Z,2.27
2018-11-28T03:28:19.695Z,2.30
2018-11-28T03:30:49.458Z,2.10
2018-11-28T03:33:19.243Z,2.30
2018-11-28T03:35:49.175Z,2.43
2018-11-28T03:38:19.140Z,2.10
2018-11-28T03:40:49.068Z,1.73
2018-11-28T03:43:19.022Z,2.03
2018-11-28T03:45:48.917Z,2.43
2018-11-28T03:48:21.751Z,2.27
2018-11-28T03:50:51.778Z,4.10
2018-11-28T03:53:21.624Z,2.43
2018-11-28T03:55:51.486Z,2.13
2018-11-28T03:58:21.630Z,2.50
2018-11-28T04:00:51.619Z,3.00
2018-11-28T04:03:21.568Z,2.87
2018-11-28T04:05:51.507Z,3.00
2018-11-28T04:08:21.597Z,4.27
2018-11-28T04:10:51.518Z,3.30
2018-11-28T04:13:21.332Z,3.77
2018-11-28T04:15:51.260Z,3.83
2018-11-28T04:18:21.189Z,3.70
2018-11-28T04:20:51.061Z,4.50
2018-11-28T04:23:20.876Z,3.70
2018-11-28T04:25:50.812Z,3.07
2018-11-28T04:28:20.744Z,3.00
2018-11-28T04:30:50.541Z,4.20
2018-11-28T04:33:20.313Z,3.03
2018-11-28T04:35:50.271Z,3.00
2018-11-28T04:38:20.226Z,3.10
2018-11-28T04:40:50.209Z,3.47
2018-11-28T04:43:20.027Z,2.50
2018-11-28T04:45:50.010Z,2.70
2018-11-28T04:48:19.902Z,2.87
2018-11-28T04:50:49.689Z,8.23
2018-11-28T04:53:19.462Z,4.30
2018-11-28T04:55:49.277Z,5.87
2018-11-28T04:58:19.252Z,3.43
2018-11-28T05:00:49.163Z,4.00
2018-11-28T05:03:19.076Z,3.50
2018-11-28T05:05:48.994Z,3.07
2018-11-28T05:08:19.029Z,3.13
2018-11-28T05:10:48.796Z,2.53
2018-11-28T05:13:18.602Z,2.20
2018-11-28T05:15:48.512Z,2.57
2018-11-28T05:18:18.437Z,2.30
2018-11-28T05:20:48.380Z,3.47
2018-11-28T05:23:18.133Z,3.03
2018-11-28T05:25:48.484Z,2.17
2018-11-28T05:28:18.448Z,1.67
2018-11-28T05:30:48.216Z,2.03
2018-11-28T05:33:18.077Z,2.63
2018-11-28T05:35:48.025Z,2.27
2018-11-28T05:38:17.959Z,2.50
2018-11-28T05:40:47.962Z,2.37
2018-11-28T05:43:18.042Z,2.00
2018-11-28T05:45:47.970Z,2.60
2018-11-28T05:48:18.110Z,2.10
2018-11-28T05:50:47.943Z,3.03
2018-11-28T05:53:17.746Z,2.17
2018-11-28T05:55:47.651Z,2.60
2018-11-28T05:58:17.653Z,1.93
2018-11-28T06:00:47.504Z,2.10
2018-11-28T06:03:17.460Z,2.17
2018-11-28T06:05:47.412Z,2.30
2018-11-28T06:08:17.360Z,2.20
2018-11-28T06:10:47.204Z,3.03
2018-11-28T06:13:16.972Z,2.30
2018-11-28T06:15:46.875Z,3.47
2018-11-28T06:18:16.881Z,2.40
2018-11-28T06:20:46.727Z,2.47
2018-11-28T06:23:16.601Z,2.70
2018-11-28T06:25:46.613Z,2.67
2018-11-28T06:28:16.514Z,3.57
2018-11-28T06:30:46.355Z,2.70
2018-11-28T06:33:16.143Z,6.93
2018-11-28T06:35:46.072Z,3.20
2018-11-28T06:38:15.908Z,3.40
2018-11-28T06:40:45.855Z,3.50
2018-11-28T06:43:15.878Z,3.37
2018-11-28T06:45:45.894Z,3.77
2018-11-28T06:48:15.873Z,2.57
2018-11-28T06:50:45.738Z,2.80
2018-11-28T06:53:15.509Z,2.27
2018-11-28T06:55:45.522Z,1.70
2018-11-28T06:58:15.498Z,1.90
2018-11-28T07:02:14.832Z,2.63
2018-11-28T07:04:44.775Z,2.10
2018-11-28T07:07:14.746Z,2.03
2018-11-28T07:09:44.628Z,2.33
2018-11-28T07:12:14.543Z,1.60
2018-11-28T07:14:44.551Z,2.10
2018-11-28T07:17:14.559Z,1.90
2018-11-28T07:19:44.592Z,2.30
2018-11-28T07:22:14.499Z,2.60
2018-11-28T07:24:44.467Z,2.00
2018-11-28T07:27:14.435Z,2.37
2018-11-28T07:29:44.308Z,2.10
2018-11-28T07:32:14.126Z,3.13
2018-11-28T07:34:44.185Z,2.57
2018-11-28T07:37:13.982Z,2.30
2018-11-28T07:39:43.893Z,3.50
2018-11-28T07:42:13.904Z,2.77
2018-11-28T07:44:43.877Z,2.90
2018-11-28T07:47:13.990Z,4.03
2018-11-28T07:49:43.926Z,4.40
2018-11-28T07:52:13.799Z,2.60
2018-11-28T07:54:43.777Z,3.37
2018-11-28T07:57:13.614Z,2.30
2018-11-28T07:59:43.979Z,2.57
2018-11-28T08:02:13.920Z,2.50
2018-11-28T08:04:44.069Z,9.47
2018-11-28T08:07:14.210Z,2.20
2018-11-28T08:09:44.087Z,2.60
2018-11-28T08:12:14.030Z,2.23
2018-11-28T08:14:44.314Z,2.80
2018-11-28T08:17:14.213Z,2.40
2018-11-28T08:19:44.289Z,3.27
2018-11-28T08:22:14.140Z,2.60
2018-11-28T08:24:44.206Z,2.70
2018-11-28T08:27:14.110Z,2.70
2018-11-28T08:29:44.028Z,3.50
2018-11-28T08:32:13.941Z,2.93
2018-11-28T08:34:44.296Z,2.47
2018-11-28T08:37:14.244Z,2.73
2018-11-28T08:39:44.316Z,3.20
2018-11-28T08:42:14.611Z,2.00
2018-11-28T08:44:44.605Z,2.10
2018-11-28T08:47:14.708Z,2.73
2018-11-28T08:49:44.627Z,2.20
2018-11-28T08:52:14.439Z,3.00
2018-11-28T08:54:44.235Z,2.87
2018-11-28T08:57:14.276Z,3.03
2018-11-28T08:59:44.606Z,2.80
2018-11-28T09:02:14.491Z,3.40
2018-11-28T09:04:44.428Z,3.30
2018-11-28T09:07:14.369Z,2.73
2018-11-28T09:09:44.223Z,3.13
2018-11-28T09:12:13.992Z,2.60
2018-11-28T09:14:43.960Z,2.70
2018-11-28T09:17:15.269Z,3.47
2018-11-28T09:19:44.122Z,3.43
2018-11-28T09:22:14.001Z,2.87
2018-11-28T09:24:43.977Z,3.43
2018-11-28T09:27:13.878Z,3.43
2018-11-28T09:29:43.755Z,2.83
2018-11-28T09:32:13.756Z,3.13
2018-11-28T09:34:44.079Z,3.03
2018-11-28T09:37:14.255Z,3.37
2018-11-28T09:39:44.223Z,3.00
2018-11-28T09:42:14.337Z,4.87
2018-11-28T09:44:44.274Z,4.50
2018-11-28T09:47:14.327Z,3.60
2018-11-28T09:49:44.285Z,4.10
2018-11-28T09:52:14.086Z,4.73
2018-11-28T09:54:44.039Z,4.17
2018-11-28T09:57:14.087Z,3.83
2018-11-28T09:59:45.941Z,3.70
2018-11-28T10:02:16.061Z,2.80
2018-11-28T10:04:46.324Z,3.30
2018-11-28T10:07:16.531Z,1.43
2018-11-28T10:09:46.583Z,1.40
2018-11-28T10:12:16.428Z,1.20
2018-11-28T10:14:46.460Z,1.30
2018-11-28T10:17:16.476Z,1.00
2018-11-28T10:19:46.565Z,1.50
2018-11-28T10:22:16.481Z,1.80
2018-11-28T10:24:46.456Z,1.47
2018-11-28T10:27:16.376Z,1.90
2018-11-28T10:29:46.290Z,1.27
2018-11-28T10:32:16.108Z,1.07
2018-11-28T10:34:46.281Z,0.93
2018-11-28T10:37:16.335Z,1.23
2018-11-28T10:39:46.475Z,1.17
2018-11-28T10:42:16.540Z,1.30
2018-11-28T10:44:46.716Z,1.23
2018-11-28T10:47:16.780Z,1.13
2018-11-28T10:49:46.611Z,1.90
2018-11-28T10:52:16.547Z,1.37
2018-11-28T10:54:46.602Z,1.50
2018-11-28T10:57:16.861Z,1.40
2018-11-28T10:59:47.125Z,1.00
2018-11-28T11:02:22.672Z,1.10
2018-11-28T11:04:57.828Z,1.20
2018-11-28T11:09:02.157Z,1.07
2018-11-28T11:11:37.317Z,1.40
2018-11-28T11:14:12.623Z,1.50
2018-11-28T11:16:42.570Z,1.60
2018-11-28T11:19:12.830Z,1.40
2018-11-28T11:21:42.982Z,1.50
2018-11-28T11:24:13.179Z,1.30
2018-11-28T11:26:43.270Z,1.20
2018-11-28T11:29:13.454Z,1.50
2018-11-28T11:31:43.618Z,1.30
2018-11-28T11:34:14.770Z,1.47
2018-11-28T11:36:44.198Z,1.23
2018-11-28T11:39:14.405Z,1.67
2018-11-28T11:41:44.822Z,1.63
2018-11-28T11:44:14.722Z,1.20
2018-11-28T11:46:44.766Z,1.13
2018-11-28T11:49:14.898Z,1.40
2018-11-28T11:51:44.796Z,0.90
2018-11-28T11:54:14.610Z,1.20
2018-11-28T11:56:44.770Z,1.50
2018-11-28T11:59:14.908Z,1.20
2018-11-28T12:01:45.030Z,3.40
2018-11-28T12:04:15.247Z,1.63
2018-11-28T12:06:45.384Z,1.60
2018-11-28T12:09:15.611Z,2.00
2018-11-28T12:11:45.427Z,1.20
2018-11-28T12:14:15.589Z,1.20
2018-11-28T12:16:45.569Z,1.30
2018-11-28T12:19:15.801Z,1.00
2018-11-28T12:21:45.972Z,1.00
2018-11-28T12:24:15.842Z,2.40
2018-11-28T12:26:45.902Z,1.40
2018-11-28T12:29:15.804Z,3.43
2018-11-28T12:31:45.590Z,1.63
2018-11-28T12:35:44.843Z,1.67
2018-11-28T12:38:14.741Z,1.47
2018-11-28T12:40:44.756Z,2.10
2018-11-28T12:43:14.795Z,1.30
2018-11-28T12:45:46.443Z,2.20
2018-11-28T12:48:16.438Z,1.63
2018-11-28T12:50:46.513Z,1.10
2018-11-28T12:53:16.341Z,2.00
2018-11-28T12:55:46.357Z,1.37
2018-11-28T12:58:17.760Z,1.50
2018-11-28T13:00:48.033Z,1.20
2018-11-28T13:03:19.331Z,1.30
2018-11-28T13:05:49.446Z,1.60
2018-11-28T13:08:19.520Z,2.23
2018-11-28T13:10:49.453Z,1.40
2018-11-28T13:13:19.284Z,1.47
2018-11-28T13:15:49.369Z,1.63
2018-11-28T13:18:19.333Z,1.40
2018-11-28T13:20:49.311Z,1.53
2018-11-28T13:23:19.163Z,1.50
2018-11-28T13:25:49.103Z,1.70
2018-11-28T13:28:19.608Z,1.73
2018-11-28T13:30:49.616Z,1.60
2018-11-28T13:33:19.815Z,1.70
2018-11-28T13:35:49.899Z,2.30
2018-11-28T13:40:50.209Z,1.90
2018-11-28T13:43:20.188Z,2.03
2018-11-28T13:45:50.563Z,2.20
2018-11-28T13:48:20.525Z,2.53
2018-11-28T13:50:50.288Z,2.40
2018-11-28T13:53:20.079Z,2.60
2018-11-28T13:56:57.065Z,2.80
2018-11-28T13:58:23.823Z,3.37
2018-11-28T14:00:53.970Z,2.50
2018-11-28T14:03:23.790Z,2.03
2018-11-28T14:05:53.619Z,2.47
2018-11-28T14:08:23.464Z,2.63
2018-11-28T14:10:53.407Z,2.60
2018-11-28T14:13:23.408Z,3.00
2018-11-28T14:15:53.383Z,2.67
2018-11-28T14:18:23.283Z,4.43
2018-11-28T14:20:53.356Z,4.93
2018-11-28T14:23:23.130Z,3.37
2018-11-28T14:25:53.114Z,3.23
2018-11-28T14:28:23.252Z,3.43
2018-11-28T14:30:53.322Z,2.73
2018-11-28T14:33:23.466Z,3.00
2018-11-28T14:35:53.815Z,3.20
2018-11-28T14:38:23.861Z,4.00
2018-11-28T14:40:54.162Z,2.87
2018-11-28T14:43:24.206Z,2.93
2018-11-28T14:45:54.320Z,3.10
2018-11-28T14:48:24.417Z,5.73
2018-11-28T14:50:54.233Z,2.87
2018-11-28T14:53:23.946Z,5.10
2018-11-28T14:55:54.010Z,3.30
2018-11-28T14:58:24.016Z,3.20
2018-11-28T15:00:53.979Z,3.17
2018-11-28T15:03:23.956Z,2.97
2018-11-28T15:06:03.901Z,5.53
2018-11-28T15:08:34.346Z,3.27
2018-11-28T15:11:08.418Z,3.40
2018-11-28T15:13:38.612Z,4.40
2018-11-28T15:16:09.127Z,3.57
2018-11-28T15:18:39.345Z,3.30
2018-11-28T15:21:10.616Z,3.43
2018-11-28T15:23:40.993Z,2.70
2018-11-28T15:26:11.124Z,2.70
2018-11-28T15:28:41.119Z,3.10
2018-11-28T15:31:10.921Z,2.93
2018-11-28T15:33:40.779Z,3.30
2018-11-28T15:36:11.537Z,3.87
2018-11-28T15:38:41.459Z,4.93
2018-11-28T15:41:11.519Z,6.20
2018-11-28T15:43:41.383Z,4.50
2018-11-28T15:46:14.936Z,3.80
2018-11-28T15:48:41.503Z,4.47
2018-11-28T15:51:11.338Z,4.43
2018-11-28T15:53:41.206Z,4.63
2018-11-28T15:56:11.053Z,3.33
2018-11-28T15:58:40.975Z,4.27
2018-11-28T16:01:10.995Z,5.27
2018-11-28T16:03:40.995Z,4.20
2018-11-28T16:06:11.028Z,4.67
2018-11-28T16:08:41.014Z,4.37
2018-11-28T16:11:16.120Z,4.10
2018-11-28T16:13:45.887Z,3.70
2018-11-28T16:16:15.919Z,6.50
2018-11-28T16:18:45.952Z,5.57
2018-11-28T16:21:16.026Z,5.47
2018-11-28T16:23:45.863Z,5.77
2018-11-28T16:26:15.837Z,5.97
2018-11-28T16:28:45.777Z,8.13
2018-11-28T16:31:15.678Z,6.33
2018-11-28T16:33:45.493Z,8.00
2018-11-28T16:36:15.659Z,8.40
2018-11-28T16:38:45.628Z,8.00
2018-11-28T16:41:15.570Z,7.33
2018-11-28T16:43:45.553Z,6.90
2018-11-28T16:46:15.606Z,9.20
2018-11-28T16:48:45.634Z,5.50
2018-11-28T16:51:15.414Z,6.83
2018-11-28T16:53:45.152Z,5.93
2018-11-28T16:56:15.171Z,8.67
2018-11-28T16:58:45.382Z,8.23
2018-11-28T17:01:15.398Z,7.77
2018-11-28T17:03:45.368Z,7.73
2018-11-28T17:06:15.358Z,11.40
2018-11-28T17:08:45.345Z,8.73
2018-11-28T17:11:15.130Z,9.20
2018-11-28T17:13:44.927Z,9.67
2018-11-28T17:16:14.803Z,8.73
2018-11-28T17:18:44.680Z,8.80
2018-11-28T17:21:14.797Z,7.53
2018-11-28T17:23:44.627Z,8.23
2018-11-28T17:26:14.505Z,9.90
2018-11-28T17:28:44.386Z,9.43
2018-11-28T17:31:14.342Z,8.23
2018-11-28T17:33:44.190Z,8.70
2018-11-28T17:36:14.340Z,8.00
2018-11-28T17:38:44.293Z,8.27
2018-11-28T17:41:14.270Z,10.23
2018-11-28T17:43:44.176Z,10.20
2018-11-28T17:46:14.257Z,10.27
2018-11-28T17:48:44.283Z,10.00
2018-11-28T17:51:14.152Z,9.37
2018-11-28T17:53:43.981Z,9.07
2018-11-28T17:56:14.058Z,10.27
2018-11-28T17:58:44.215Z,9.07
2018-11-28T18:01:14.610Z,9.33
2018-11-28T18:03:44.654Z,26.10
2018-11-28T18:06:14.775Z,9.57
2018-11-28T18:08:44.840Z,11.50
2018-11-28T18:11:15.835Z,10.93
2018-11-28T18:20:33.328Z,10.20
2018-11-28T18:23:03.464Z,11.40
2018-11-28T18:25:34.100Z,10.57
2018-11-28T18:28:04.148Z,10.80
2018-11-28T18:30:34.166Z,11.33
2018-11-28T18:33:04.149Z,10.10
2018-11-28T18:38:56.960Z,10.97
2018-11-28T18:41:27.068Z,12.33
2018-11-28T18:43:57.437Z,10.70
2018-11-28T18:46:27.555Z,11.73
2018-11-28T18:48:57.585Z,11.27
2018-11-28T18:51:28.613Z,11.83
2018-11-28T18:53:58.063Z,9.43
2018-11-28T18:56:29.538Z,9.60
2018-11-28T18:58:59.560Z,8.50
2018-11-28T19:01:29.637Z,9.60
2018-11-28T19:03:59.772Z,9.63
2018-11-28T19:06:29.861Z,10.13
2018-11-28T19:09:00.000Z,10.23
2018-11-28T19:11:29.870Z,9.27
2018-11-28T19:13:59.743Z,9.63
2018-11-28T19:16:29.943Z,10.10
2018-11-28T19:19:00.241Z,9.57
2018-11-28T19:21:30.602Z,12.07
2018-11-28T19:24:00.568Z,10.23
2018-11-28T19:26:30.822Z,10.90
2018-11-28T19:29:01.045Z,12.67
2018-11-28T19:35:36.286Z,9.77
2018-11-28T19:38:08.257Z,11.20
2018-11-28T19:40:57.411Z,11.23
2018-11-28T19:43:27.667Z,11.00
2018-11-28T19:45:57.785Z,10.57
2018-11-28T19:48:27.883Z,11.00
2018-11-28T19:50:57.739Z,10.17
2018-11-28T19:53:27.948Z,9.97
2018-11-28T19:55:57.866Z,10.87
2018-11-28T19:58:30.158Z,12.40
2018-11-28T20:01:00.716Z,11.03
2018-11-28T20:03:32.595Z,12.13
2018-11-28T20:06:04.482Z,9.87
2018-11-28T20:08:37.522Z,11.23
2018-11-28T20:11:11.685Z,11.57
2018-11-28T20:13:45.159Z,10.33
2018-11-28T20:19:20.212Z,11.73
2018-11-28T20:21:51.194Z,11.83
2018-11-28T20:24:22.534Z,11.57
2018-11-28T20:26:52.527Z,11.47
2018-11-28T20:29:23.705Z,11.73
2018-11-28T20:31:54.664Z,10.93
2018-11-28T20:34:24.735Z,10.53
2018-11-28T20:36:57.966Z,11.60
2018-11-28T20:39:29.369Z,10.73
2018-11-28T20:42:00.810Z,13.27
2018-11-28T20:44:32.479Z,11.10
2018-11-28T20:47:05.168Z,12.13
2018-11-28T20:49:35.162Z,12.80
2018-11-28T20:52:05.036Z,11.70
2018-11-28T20:54:36.379Z,11.83
2018-11-28T20:57:08.096Z,10.40
2018-11-28T20:59:41.298Z,12.03
2018-11-28T21:02:13.228Z,11.73
2018-11-28T21:04:43.234Z,12.20
2018-11-28T21:07:13.166Z,12.57
2018-11-28T21:09:50.067Z,9.50
2018-11-28T21:12:21.953Z,12.57
2018-11-28T21:14:54.430Z,11.37
2018-11-28T21:17:27.484Z,9.97
2018-11-28T21:19:57.482Z,14.70
2018-11-28T21:22:28.815Z,13.30
2018-11-28T21:25:01.263Z,12.60
2018-11-28T21:27:32.870Z,11.17
2018-11-28T21:30:02.863Z,12.23
2018-11-28T21:32:32.722Z,11.43
2018-11-28T21:35:02.675Z,10.87
2018-11-28T21:37:32.686Z,13.73
2018-11-28T21:40:02.789Z,13.10
2018-11-28T21:42:32.906Z,12.70
2018-11-28T21:45:02.916Z,13.13
2018-11-28T21:47:32.971Z,12.53
2018-11-28T21:50:02.775Z,12.90
2018-11-28T21:52:32.641Z,11.63
2018-11-28T21:55:02.466Z,11.67
2018-11-28T21:57:32.416Z,13.30
2018-11-28T22:00:02.347Z,13.77
2018-11-28T22:02:32.302Z,12.27
2018-11-28T22:05:02.264Z,12.43
2018-11-28T22:07:32.256Z,14.90
2018-11-28T22:10:02.066Z,14.43
2018-11-28T22:12:31.871Z,13.73
2018-11-28T22:15:01.844Z,12.40
2018-11-28T22:17:31.768Z,15.50
2018-11-28T22:20:01.736Z,14.83
2018-11-28T22:22:32.637Z,13.87
2018-11-28T22:25:04.017Z,14.33
2018-11-28T22:27:35.046Z,12.80
2018-11-28T22:30:06.676Z,11.13
2018-11-28T22:32:38.571Z,16.00
2018-11-28T22:35:09.787Z,11.63
2018-11-28T22:37:41.122Z,11.10
2018-11-28T22:40:15.475Z,13.57
2018-11-28T22:42:46.688Z,13.07
2018-11-28T22:45:20.062Z,10.80
2018-11-28T22:47:51.433Z,14.07
2018-11-28T22:50:21.540Z,11.40
2018-11-28T22:52:52.361Z,11.97
2018-11-28T22:55:23.239Z,12.93
2018-11-28T22:57:54.037Z,12.33
2018-11-28T23:00:30.865Z,12.90
2018-11-28T23:03:04.304Z,11.43
2018-11-28T23:05:36.611Z,10.87
2018-11-28T23:08:09.812Z,11.33
2018-11-28T23:10:40.442Z,12.63
2018-11-28T23:13:11.637Z,11.20
2018-11-28T23:15:42.579Z,12.63
2018-11-28T23:18:13.475Z,13.73
2018-11-28T23:20:44.049Z,12.73
2018-11-28T23:23:14.932Z,11.17
2018-11-28T23:25:45.885Z,10.90
2018-11-28T23:28:16.652Z,12.33
2018-11-28T23:30:47.374Z,12.40
2018-11-28T23:33:18.078Z,12.97
2018-11-28T23:35:48.919Z,11.63
2018-11-28T23:38:19.107Z,13.30
2018-11-28T23:40:49.738Z,12.20
2018-11-28T23:43:20.313Z,11.60
2018-11-28T23:45:51.241Z,12.07
2018-11-28T23:48:22.102Z,11.60
2018-11-28T23:50:52.790Z,11.53
2018-11-28T23:53:23.529Z,11.73
2018-11-28T23:55:54.365Z,12.70
2018-11-28T23:58:25.136Z,11.30
